Time,TemperatureF,DewpointF,PressureIn,WindDirection,WindDirectionDegrees,WindSpeedMPH,WindSpeedGustMPH,Humidity,HourlyPrecipIn,Conditions,Clouds,dailyrainin,SoftwareType,DateUTC
2013-08-03 00:00:00,68.4,63.0,29.96,South,180,3.4,5.8,83,0.00,BKN,,0.00,WeatherDisplay:10.37,2013-08-03 04:00:00,
2013-08-03 00:01:00,68.4,63.0,29.96,South,180,3.0,5.8,83,0.00,BKN,,0.00,WeatherDisplay:10.37,2013-08-03 04:01:00,
2013-08-03 00:03:00,68.7,63.0,29.96,SSW,202,4.1,4.6,82,0.00,BKN,,0.00,WeatherDisplay:10.37,2013-08-03 04:03:00,
2013-08-03 00:05:00,68.7,63.0,29.97,SSW,202,2.5,3.5,82,0.00,BKN,,0.00,WeatherDisplay:10.37,2013-08-03 04:05:00,
2013-08-03 00:07:00,68.7,63.0,29.97,SSW,202,2.7,3.6,82,0.00,BKN,,0.00,WeatherDisplay:10.37,2013-08-03 04:07:00,
2013-08-03 00:09:00,68.7,63.0,29.97,SSW,202,3.4,3.6,82,0.00,BKN,,0.00,WeatherDisplay:10.37,2013-08-03 04:09:00,
2013-08-03 00:14:00,68.7,63.0,29.97,South,180,2.7,4.6,82,0.00,BKN,,0.00,WeatherDisplay:10.37,2013-08-03 04:14:00,
2013-08-03 00:19:00,68.9,63.2,29.96,South,180,3.5,6.1,82,0.00,BKN,,0.00,WeatherDisplay:10.37,2013-08-03 04:19:00,
2013-08-03 00:24:00,69.1,63.0,29.96,West,270,3.8,6.1,81,0.00,BKN,,0.00,WeatherDisplay:10.37,2013-08-03 04:24:00,
2013-08-03 00:29:00,69.3,63.2,29.96,SSW,202,4.0,9.2,81,0.00,BKN,,0.00,WeatherDisplay:10.37,2013-08-03 04:29:00,
2013-08-03 00:34:00,69.3,62.9,29.96,South,180,4.8,7.0,80,0.00,BKN,,0.00,WeatherDisplay:10.37,2013-08-03 04:34:00,
2013-08-03 00:39:00,69.4,63.0,29.96,SSE,158,3.3,4.6,80,0.00,BKN,,0.00,WeatherDisplay:10.37,2013-08-03 04:39:00,
2013-08-03 00:44:00,69.4,63.0,29.97,SSW,202,5.4,7.0,80,0.00,BKN,,0.00,WeatherDisplay:10.37,2013-08-03 04:44:00,
2013-08-03 00:49:00,69.6,63.2,29.97,West,270,4.5,6.1,80,0.00,BKN,,0.00,WeatherDisplay:10.37,2013-08-03 04:49:00,
2013-08-03 00:54:00,69.6,63.2,29.97,South,180,3.1,4.6,80,0.00,BKN,,0.00,WeatherDisplay:10.37,2013-08-03 04:54:00,
2013-08-03 00:59:00,69.8,63.3,29.97,WNW,292,5.1,6.1,80,0.00,BKN,,0.00,WeatherDisplay:10.37,2013-08-03 04:59:00,
2013-08-03 01:04:00,70.0,63.2,29.97,West,270,3.9,8.1,79,0.00,BKN,,0.00,WeatherDisplay:10.37,2013-08-03 05:04:00,
2013-08-03 01:09:00,70.0,63.2,29.97,SSE,158,4.5,9.2,79,0.00,BKN,,0.00,WeatherDisplay:10.37,2013-08-03 05:09:00,
2013-08-03 01:14:00,70.0,63.2,29.97,SW,225,2.8,5.8,79,0.00,BKN,,0.00,WeatherDisplay:10.37,2013-08-03 05:14:00,
2013-08-03 01:19:00,70.0,63.2,29.97,South,180,5.4,8.7,79,0.00,BKN,,0.00,WeatherDisplay:10.37,2013-08-03 05:19:00,
2013-08-03 01:24:00,70.0,63.2,29.97,SW,225,4.4,6.9,79,0.00,BKN,,0.00,WeatherDisplay:10.37,2013-08-03 05:24:00,
2013-08-03 01:29:00,70.0,63.2,29.96,WSW,248,3.9,5.8,79,0.00,BKN,,0.00,WeatherDisplay:10.37,2013-08-03 05:29:00,
2013-08-03 01:34:00,70.0,63.2,29.96,South,180,4.7,6.1,79,0.00,BKN,,0.00,WeatherDisplay:10.37,2013-08-03 05:34:00,
2013-08-03 01:39:00,70.0,63.2,29.96,South,180,3.3,5.8,79,0.00,BKN,,0.00,WeatherDisplay:10.37,2013-08-03 05:39:00,
2013-08-03 01:44:00,69.8,63.0,29.96,SSE,158,4.2,6.9,79,0.00,BKN,,0.00,WeatherDisplay:10.37,2013-08-03 05:44:00,
2013-08-03 01:49:00,69.8,63.3,29.96,SW,225,5.2,7.0,80,0.00,BKN,,0.00,WeatherDisplay:10.37,2013-08-03 05:49:00,
2013-08-03 01:54:00,69.8,63.3,29.96,WSW,248,4.4,9.2,80,0.00,BKN,,0.00,WeatherDisplay:10.37,2013-08-03 05:54:00,
2013-08-03 01:59:00,69.8,63.3,29.96,South,180,4.9,6.1,80,0.00,BKN,,0.00,WeatherDisplay:10.37,2013-08-03 05:59:00,
2013-08-03 02:04:00,69.6,63.2,29.96,SSE,158,4.7,6.1,80,0.00,BKN,,0.00,WeatherDisplay:10.37,2013-08-03 06:04:00,
2013-08-03 02:09:00,69.6,63.2,29.96,West,270,3.9,7.0,80,0.00,BKN,,0.00,WeatherDisplay:10.37,2013-08-03 06:09:00,
2013-08-03 02:14:00,69.4,63.3,29.96,South,180,4.5,6.1,81,0.00,BKN,,0.00,WeatherDisplay:10.37,2013-08-03 06:14:00,
2013-08-03 02:19:00,69.4,63.3,29.96,South,180,4.4,5.8,81,0.00,BKN,,0.00,WeatherDisplay:10.37,2013-08-03 06:19:00,
2013-08-03 02:24:00,69.3,63.2,29.96,SSE,158,3.1,5.8,81,0.00,BKN,,0.00,WeatherDisplay:10.37,2013-08-03 06:24:00,
2013-08-03 02:29:00,69.3,63.2,29.96,South,180,3.8,5.8,81,0.00,BKN,,0.00,WeatherDisplay:10.37,2013-08-03 06:29:00,
2013-08-03 02:34:00,69.3,63.6,29.96,SSE,158,4.3,4.6,82,0.00,BKN,,0.00,WeatherDisplay:10.37,2013-08-03 06:34:00,
2013-08-03 02:39:00,69.1,63.7,29.96,SSE,158,2.4,3.5,83,0.00,BKN,,0.00,WeatherDisplay:10.37,2013-08-03 06:39:00,
2013-08-03 02:44:00,68.7,63.7,29.96,SSE,158,2.5,3.5,84,0.00,BKN,,0.00,WeatherDisplay:10.37,2013-08-03 06:44:00,
2013-08-03 02:49:00,68.5,63.8,29.96,SSE,158,2.1,3.6,85,0.00,BKN,,0.00,WeatherDisplay:10.37,2013-08-03 06:49:00,
2013-08-03 02:54:00,68.0,64.0,29.97,SSW,202,2.5,4.6,87,0.00,BKN,,0.00,WeatherDisplay:10.37,2013-08-03 06:54:00,
2013-08-03 02:59:00,67.8,64.4,29.97,SSW,202,0.0,2.3,89,0.00,BKN,,0.00,WeatherDisplay:10.37,2013-08-03 06:59:00,
2013-08-03 03:04:00,67.5,64.1,29.97,SSW,202,0.0,0.0,89,0.01,RA,,0.01,WeatherDisplay:10.37,2013-08-03 07:04:00,
2013-08-03 03:09:00,67.1,64.1,29.97,West,270,3.1,5.8,90,0.01,RA,,0.01,WeatherDisplay:10.37,2013-08-03 07:09:00,
2013-08-03 03:14:00,66.7,64.0,29.97,West,270,3.5,4.6,91,0.01,RA,,0.01,WeatherDisplay:10.37,2013-08-03 07:14:00,
2013-08-03 03:19:00,66.6,63.9,29.98,NNW,338,3.9,5.8,91,0.02,RA,,0.02,WeatherDisplay:10.37,2013-08-03 07:19:00,
2013-08-03 03:24:00,66.4,63.7,29.98,NNW,338,1.7,4.6,91,0.03,RA,,0.03,WeatherDisplay:10.37,2013-08-03 07:24:00,
2013-08-03 03:29:00,66.0,63.6,29.98,SSW,202,0.5,5.8,92,0.03,RA,,0.03,WeatherDisplay:10.37,2013-08-03 07:29:00,
2013-08-03 03:34:00,65.8,63.7,29.98,SSW,202,3.7,5.8,93,0.03,RA,,0.03,WeatherDisplay:10.37,2013-08-03 07:34:00,
2013-08-03 03:39:00,65.7,63.6,29.98,SSW,202,2.5,3.5,93,0.04,RA,,0.04,WeatherDisplay:10.37,2013-08-03 07:39:00,
2013-08-03 03:44:00,65.7,63.9,29.98,SSW,202,2.2,2.7,94,0.04,RA,,0.04,WeatherDisplay:10.37,2013-08-03 07:44:00,
2013-08-03 03:49:00,65.5,63.7,29.98,South,180,3.5,4.4,94,0.05,RA,,0.05,WeatherDisplay:10.37,2013-08-03 07:49:00,
2013-08-03 03:54:00,65.3,63.8,29.98,SSE,158,1.6,3.5,95,0.05,RA,,0.05,WeatherDisplay:10.37,2013-08-03 07:54:00,
2013-08-03 03:59:00,65.1,63.6,29.98,SSE,158,0.0,0.0,95,0.05,RA,,0.05,WeatherDisplay:10.37,2013-08-03 07:59:00,
2013-08-03 04:04:00,65.1,63.9,29.99,SSE,158,0.0,0.0,96,0.04,BKN,,0.05,WeatherDisplay:10.37,2013-08-03 08:04:00,
2013-08-03 04:09:00,64.9,63.7,29.99,SSE,158,0.0,0.0,96,0.04,BKN,,0.05,WeatherDisplay:10.37,2013-08-03 08:09:00,
2013-08-03 04:14:00,64.9,64.0,29.99,SSE,158,0.0,0.0,97,0.04,BKN,,0.05,WeatherDisplay:10.37,2013-08-03 08:14:00,
2013-08-03 04:19:00,64.9,64.0,29.99,SSE,158,0.0,0.0,97,0.04,RA,,0.06,WeatherDisplay:10.37,2013-08-03 08:19:00,
2013-08-03 04:24:00,64.8,63.9,29.99,SSE,158,1.6,3.6,97,0.03,RA,,0.06,WeatherDisplay:10.37,2013-08-03 08:24:00,
2013-08-03 04:29:00,64.8,64.2,29.98,SSE,158,0.0,0.0,98,0.03,RA,,0.06,WeatherDisplay:10.37,2013-08-03 08:29:00,
2013-08-03 04:34:00,64.8,64.2,29.98,SSE,158,0.0,0.0,98,0.03,BKN,,0.06,WeatherDisplay:10.37,2013-08-03 08:34:00,
2013-08-03 04:39:00,64.8,64.2,29.98,SSE,158,0.0,0.0,98,0.02,BKN,,0.06,WeatherDisplay:10.37,2013-08-03 08:39:00,
2013-08-03 04:44:00,64.8,64.2,29.98,SSE,158,0.0,0.0,98,0.02,BKN,,0.06,WeatherDisplay:10.37,2013-08-03 08:44:00,
2013-08-03 04:49:00,64.8,64.2,29.98,SSE,158,0.0,0.0,98,0.02,RA,,0.07,WeatherDisplay:10.37,2013-08-03 08:49:00,
2013-08-03 04:54:00,64.6,64.0,29.99,SSE,158,0.0,0.0,98,0.02,RA,,0.07,WeatherDisplay:10.37,2013-08-03 08:54:00,
2013-08-03 04:59:00,64.6,64.0,29.99,SSE,158,0.0,0.0,98,0.02,RA,,0.07,WeatherDisplay:10.37,2013-08-03 08:59:00,
2013-08-03 05:04:00,64.6,64.0,29.99,SSE,158,0.0,0.0,98,0.02,BKN,,0.07,WeatherDisplay:10.37,2013-08-03 09:04:00,
2013-08-03 05:09:00,64.6,64.3,29.98,SSE,158,2.0,3.6,99,0.02,BKN,,0.07,WeatherDisplay:10.37,2013-08-03 09:09:00,
2013-08-03 05:14:00,64.6,64.3,29.98,SSE,158,1.8,4.6,99,0.02,BKN,,0.07,WeatherDisplay:10.37,2013-08-03 09:14:00,
2013-08-03 05:19:00,64.6,64.0,29.98,SSE,158,0.0,0.0,98,0.01,BKN,,0.07,WeatherDisplay:10.37,2013-08-03 09:19:00,
2013-08-03 05:24:00,64.6,64.0,29.98,SSE,158,0.0,2.3,98,0.01,BKN,,0.07,WeatherDisplay:10.37,2013-08-03 09:24:00,
2013-08-03 05:29:00,64.6,64.3,29.98,SSE,158,0.0,0.0,99,0.01,BKN,,0.07,WeatherDisplay:10.37,2013-08-03 09:29:00,
2013-08-03 05:34:00,64.4,64.1,29.98,SSE,158,0.0,0.0,99,0.01,BKN,,0.07,WeatherDisplay:10.37,2013-08-03 09:34:00,
2013-08-03 05:39:00,64.4,64.1,29.98,SSE,158,0.0,0.0,99,0.02,RA,,0.08,WeatherDisplay:10.37,2013-08-03 09:39:00,
2013-08-03 05:44:00,64.2,63.9,29.98,SSE,158,0.0,0.0,99,0.02,RA,,0.08,WeatherDisplay:10.37,2013-08-03 09:44:00,
2013-08-03 05:49:00,64.2,63.9,29.98,SSE,158,0.0,0.0,99,0.01,RA,,0.08,WeatherDisplay:10.37,2013-08-03 09:49:00,
2013-08-03 05:54:00,64.2,63.9,29.99,SSE,158,0.0,0.0,99,0.01,BKN,,0.08,WeatherDisplay:10.37,2013-08-03 09:54:00,
2013-08-03 05:59:00,64.2,63.9,29.99,SSE,158,0.0,0.0,99,0.01,BKN,,0.08,WeatherDisplay:10.37,2013-08-03 09:59:00,
2013-08-03 06:04:00,64.2,64.2,29.99,SSE,158,0.0,0.0,100,0.01,BKN,,0.08,WeatherDisplay:10.37,2013-08-03 10:04:00,
2013-08-03 06:09:00,64.2,64.2,29.99,SSE,158,0.0,0.0,100,0.01,BKN,,0.08,WeatherDisplay:10.37,2013-08-03 10:09:00,
2013-08-03 06:14:00,64.2,64.2,29.99,SSE,158,0.0,0.0,100,0.01,BKN,,0.08,WeatherDisplay:10.37,2013-08-03 10:14:00,
2013-08-03 06:20:00,64.2,64.2,29.99,SSE,158,0.0,0.0,100,0.02,RA,,0.09,WeatherDisplay:10.37,2013-08-03 10:20:00,
2013-08-03 06:25:00,64.2,64.2,29.99,SSE,158,0.0,0.0,100,0.02,RA,,0.09,WeatherDisplay:10.37,2013-08-03 10:25:00,
2013-08-03 06:30:00,64.2,64.2,29.99,SSE,158,0.0,0.0,100,0.02,RA,,0.09,WeatherDisplay:10.37,2013-08-03 10:30:00,
2013-08-03 06:35:00,64.2,64.2,29.99,SSE,158,0.0,0.0,100,0.02,BKN,,0.09,WeatherDisplay:10.37,2013-08-03 10:35:00,
2013-08-03 06:40:00,64.0,64.0,29.98,SSE,158,0.0,0.0,100,0.02,BKN,,0.09,WeatherDisplay:10.37,2013-08-03 10:40:00,
2013-08-03 06:45:00,64.2,64.2,29.98,SSE,158,0.0,0.0,100,0.01,BKN,,0.09,WeatherDisplay:10.37,2013-08-03 10:45:00,
2013-08-03 06:50:00,64.2,64.2,29.98,SSE,158,0.0,2.3,100,0.02,RA,,0.10,WeatherDisplay:10.37,2013-08-03 10:50:00,
2013-08-03 06:56:00,64.2,64.2,29.98,SSE,158,0.0,0.0,100,0.02,RA,,0.10,WeatherDisplay:10.37,2013-08-03 10:56:00,
2013-08-03 07:01:00,64.2,64.2,29.98,SSE,158,1.4,4.6,100,0.02,RA,,0.10,WeatherDisplay:10.37,2013-08-03 11:01:00,
2013-08-03 07:06:00,64.4,64.4,29.98,SSE,158,0.0,0.0,100,0.02,BKN,,0.10,WeatherDisplay:10.37,2013-08-03 11:06:00,
2013-08-03 07:11:00,64.4,64.4,29.98,SSE,158,0.0,0.0,100,0.02,BKN,,0.10,WeatherDisplay:10.37,2013-08-03 11:11:00,
2013-08-03 07:16:00,64.4,64.4,29.98,SSE,158,1.7,3.5,100,0.02,BKN,,0.10,WeatherDisplay:10.37,2013-08-03 11:16:00,
2013-08-03 07:21:00,64.6,64.6,29.98,SSE,158,0.0,0.0,100,0.01,BKN,,0.10,WeatherDisplay:10.37,2013-08-03 11:21:00,
2013-08-03 07:27:00,64.8,64.8,29.98,SSE,158,0.0,0.0,100,0.01,BKN,,0.10,WeatherDisplay:10.37,2013-08-03 11:27:00,
2013-08-03 07:32:00,64.8,64.8,29.99,SSE,158,0.0,0.0,100,0.01,BKN,,0.10,WeatherDisplay:10.37,2013-08-03 11:32:00,
2013-08-03 07:37:00,64.9,64.9,29.99,SSE,158,0.0,0.0,100,0.01,BKN,,0.10,WeatherDisplay:10.37,2013-08-03 11:37:00,
2013-08-03 07:42:00,64.9,64.9,29.99,SSE,158,0.0,0.0,100,0.02,RA,,0.11,WeatherDisplay:10.37,2013-08-03 11:42:00,
2013-08-03 07:47:00,65.1,64.8,29.99,SSE,158,2.5,3.6,99,0.02,RA,,0.11,WeatherDisplay:10.37,2013-08-03 11:47:00,
2013-08-03 07:52:00,65.3,65.0,29.99,SSE,158,2.2,2.7,99,0.01,RA,,0.11,WeatherDisplay:10.37,2013-08-03 11:52:00,
2013-08-03 07:57:00,65.5,65.2,29.99,SSE,158,2.4,2.7,99,0.01,BKN,,0.11,WeatherDisplay:10.37,2013-08-03 11:57:00,
2013-08-03 08:02:00,65.5,65.2,29.99,SSE,158,2.8,6.1,99,0.01,BKN,,0.11,WeatherDisplay:10.37,2013-08-03 12:02:00,
2013-08-03 08:07:00,65.3,64.7,29.99,South,180,4.1,5.8,98,0.02,RA,,0.12,WeatherDisplay:10.37,2013-08-03 12:07:00,
2013-08-03 08:12:00,65.3,64.7,29.99,SSE,158,1.9,3.6,98,0.03,RA,,0.13,WeatherDisplay:10.37,2013-08-03 12:12:00,
2013-08-03 08:17:00,65.3,64.7,29.99,SSE,158,3.1,3.6,98,0.03,RA,,0.13,WeatherDisplay:10.37,2013-08-03 12:17:00,
2013-08-03 08:22:00,65.3,64.4,29.99,SSE,158,3.6,4.6,97,0.03,RA,,0.13,WeatherDisplay:10.37,2013-08-03 12:22:00,
2013-08-03 08:27:00,65.3,64.4,29.99,SSE,158,0.0,0.0,97,0.03,BKN,,0.13,WeatherDisplay:10.37,2013-08-03 12:27:00,
2013-08-03 08:32:00,65.5,64.6,29.99,SSE,158,0.6,3.5,97,0.03,-RA,,0.13,WeatherDisplay:10.37,2013-08-03 12:32:00,
2013-08-03 08:37:00,65.5,64.6,29.99,SSE,158,3.4,3.6,97,0.04,-RA,,0.14,WeatherDisplay:10.37,2013-08-03 12:37:00,
2013-08-03 08:42:00,65.3,64.4,29.99,SSE,158,1.0,4.6,97,0.04,-RA,,0.15,WeatherDisplay:10.37,2013-08-03 12:42:00,
2013-08-03 08:47:00,65.1,64.5,29.99,SSE,158,3.8,4.6,98,0.05,-RA,,0.16,WeatherDisplay:10.37,2013-08-03 12:47:00,
2013-08-03 08:52:00,65.1,64.5,29.99,SSE,158,0.7,2.3,98,0.06,-RA,,0.17,WeatherDisplay:10.37,2013-08-03 12:52:00,
2013-08-03 08:57:00,65.1,64.5,29.99,SSE,158,2.5,4.6,98,0.06,-RA,,0.17,WeatherDisplay:10.37,2013-08-03 12:57:00,
2013-08-03 09:02:00,65.7,65.1,29.99,SSE,158,3.6,4.6,98,0.06,RA,,0.17,WeatherDisplay:10.37,2013-08-03 13:02:00,
2013-08-03 09:07:00,66.6,65.7,29.98,SSE,158,2.1,5.8,97,0.06,RA,,0.18,WeatherDisplay:10.37,2013-08-03 13:07:00,
2013-08-03 09:12:00,67.1,65.6,29.98,SSE,158,3.6,6.1,95,0.05,RA,,0.18,WeatherDisplay:10.37,2013-08-03 13:12:00,
2013-08-03 09:17:00,66.6,65.4,29.98,North,360,2.6,5.3,96,0.05,RA,,0.18,WeatherDisplay:10.37,2013-08-03 13:17:00,
2013-08-03 09:22:00,66.7,64.9,29.98,South,180,5.0,6.1,94,0.05,BKN,,0.18,WeatherDisplay:10.37,2013-08-03 13:22:00,
2013-08-03 09:27:00,66.7,64.9,29.98,South,180,3.4,4.4,94,0.05,BKN,,0.18,WeatherDisplay:10.37,2013-08-03 13:27:00,
2013-08-03 09:32:00,66.2,64.7,29.98,South,180,1.2,4.6,95,0.05,BKN,,0.18,WeatherDisplay:10.37,2013-08-03 13:32:00,
2013-08-03 09:37:00,66.4,64.9,29.98,West,270,4.4,5.8,95,0.04,BKN,,0.18,WeatherDisplay:10.37,2013-08-03 13:37:00,
2013-08-03 09:42:00,66.2,64.7,29.99,West,270,2.9,3.5,95,0.04,BKN,,0.18,WeatherDisplay:10.37,2013-08-03 13:42:00,
2013-08-03 09:47:00,66.0,64.8,29.99,West,270,0.9,2.7,96,0.03,BKN,,0.18,WeatherDisplay:10.37,2013-08-03 13:47:00,
2013-08-03 09:52:00,66.2,64.7,29.98,West,270,0.0,3.5,95,0.02,BKN,,0.18,WeatherDisplay:10.37,2013-08-03 13:52:00,
2013-08-03 09:57:00,66.6,65.1,29.98,West,270,0.5,1.9,95,0.01,BKN,,0.18,WeatherDisplay:10.37,2013-08-03 13:57:00,
2013-08-03 10:02:00,66.6,65.1,29.98,West,270,3.1,3.6,95,0.01,BKN,,0.18,WeatherDisplay:10.37,2013-08-03 14:02:00,
2013-08-03 10:07:00,66.6,64.8,29.99,West,270,0.0,0.0,94,0.01,BKN,,0.18,WeatherDisplay:10.37,2013-08-03 14:07:00,
2013-08-03 10:12:00,66.7,64.9,29.99,West,270,0.0,0.0,94,0.00,BKN,,0.18,WeatherDisplay:10.37,2013-08-03 14:12:00,
2013-08-03 10:18:00,66.6,65.1,29.99,West,270,2.1,2.7,95,0.00,OVC,,0.18,WeatherDisplay:10.37,2013-08-03 14:18:00,
2013-08-03 10:23:00,66.6,65.1,29.99,SSW,202,2.8,4.6,95,0.00,OVC,,0.18,WeatherDisplay:10.37,2013-08-03 14:23:00,
2013-08-03 10:28:00,66.7,65.2,29.98,SSW,202,0.0,2.3,95,0.00,OVC,,0.18,WeatherDisplay:10.37,2013-08-03 14:28:00,
2013-08-03 10:33:00,67.3,65.5,29.98,SSW,202,2.4,3.5,94,0.00,OVC,,0.18,WeatherDisplay:10.37,2013-08-03 14:33:00,
2013-08-03 10:39:00,67.6,65.5,29.98,NNW,338,3.2,4.6,93,0.00,OVC,,0.18,WeatherDisplay:10.37,2013-08-03 14:39:00,
2013-08-03 10:44:00,67.1,65.0,29.98,West,270,5.3,8.1,93,0.00,OVC,,0.18,WeatherDisplay:10.37,2013-08-03 14:44:00,
2013-08-03 10:49:00,67.6,65.2,29.98,West,270,4.4,5.8,92,0.00,OVC,,0.18,WeatherDisplay:10.37,2013-08-03 14:49:00,
2013-08-03 10:54:00,67.3,64.9,29.98,SW,225,3.4,3.6,92,0.00,OVC,,0.18,WeatherDisplay:10.37,2013-08-03 14:54:00,
2013-08-03 10:59:00,67.5,65.1,29.98,SSW,202,2.9,4.6,92,0.00,OVC,,0.18,WeatherDisplay:10.37,2013-08-03 14:59:00,
2013-08-03 11:04:00,67.5,65.1,29.98,SSW,202,3.0,4.6,92,0.00,OVC,,0.18,WeatherDisplay:10.37,2013-08-03 15:04:00,
2013-08-03 11:09:00,67.5,65.1,29.98,SSW,202,1.8,3.6,92,0.00,OVC,,0.18,WeatherDisplay:10.37,2013-08-03 15:09:00,
2013-08-03 11:14:00,67.8,65.1,29.98,West,270,0.9,6.9,91,0.00,OVC,,0.18,WeatherDisplay:10.37,2013-08-03 15:14:00,
2013-08-03 11:19:00,67.8,65.1,29.98,West,270,3.0,5.8,91,0.00,OVC,,0.18,WeatherDisplay:10.37,2013-08-03 15:19:00,
2013-08-03 11:24:00,68.0,65.3,29.98,West,270,0.0,0.0,91,0.00,OVC,,0.18,WeatherDisplay:10.37,2013-08-03 15:24:00,
2013-08-03 11:29:00,68.0,65.0,29.98,West,270,0.8,5.8,90,0.00,OVC,,0.18,WeatherDisplay:10.37,2013-08-03 15:29:00,
2013-08-03 11:34:00,68.0,65.3,29.98,West,270,3.2,3.6,91,0.00,OVC,,0.18,WeatherDisplay:10.37,2013-08-03 15:34:00,
2013-08-03 11:39:00,67.6,65.2,29.98,West,270,0.0,3.5,92,0.00,OVC,,0.18,WeatherDisplay:10.37,2013-08-03 15:39:00,
2013-08-03 11:44:00,67.6,65.2,29.99,West,270,0.0,4.6,92,0.00,OVC,,0.18,WeatherDisplay:10.37,2013-08-03 15:44:00,
2013-08-03 11:49:00,67.5,65.4,29.99,West,270,1.9,2.7,93,0.00,OVC,,0.18,WeatherDisplay:10.37,2013-08-03 15:49:00,
2013-08-03 11:54:00,67.5,65.1,29.99,NE,45,3.4,4.6,92,0.00,OVC,,0.18,WeatherDisplay:10.37,2013-08-03 15:54:00,
2013-08-03 11:59:00,67.5,65.4,29.99,West,270,0.0,3.5,93,0.00,OVC,,0.18,WeatherDisplay:10.37,2013-08-03 15:59:00,
2013-08-03 12:04:00,67.3,65.2,29.99,South,180,3.2,4.6,93,0.00,OVC,,0.18,WeatherDisplay:10.37,2013-08-03 16:04:00,
2013-08-03 12:09:00,67.5,65.4,29.99,SE,135,2.8,5.8,93,0.00,OVC,,0.18,WeatherDisplay:10.37,2013-08-03 16:09:00,
2013-08-03 12:14:00,68.0,65.9,29.99,NNW,338,0.0,0.0,93,0.01,RA,,0.19,WeatherDisplay:10.37,2013-08-03 16:14:00,
2013-08-03 12:19:00,67.8,65.7,29.98,NNW,338,1.8,5.3,93,0.01,RA,,0.19,WeatherDisplay:10.37,2013-08-03 16:19:00,
2013-08-03 12:24:00,67.3,64.9,29.98,ENE,68,2.2,4.6,92,0.01,RA,,0.19,WeatherDisplay:10.37,2013-08-03 16:24:00,
2013-08-03 12:29:00,68.0,65.6,29.98,ENE,68,3.9,5.3,92,0.01,OVC,,0.19,WeatherDisplay:10.37,2013-08-03 16:29:00,
2013-08-03 12:34:00,68.2,65.8,29.98,ENE,68,1.7,2.7,92,0.01,OVC,,0.19,WeatherDisplay:10.37,2013-08-03 16:34:00,
2013-08-03 12:39:00,67.8,65.4,29.98,West,270,5.4,6.1,92,0.01,OVC,,0.19,WeatherDisplay:10.37,2013-08-03 16:39:00,
2013-08-03 12:44:00,67.5,64.8,29.98,SSW,202,2.7,6.9,91,0.01,OVC,,0.19,WeatherDisplay:10.37,2013-08-03 16:44:00,
2013-08-03 12:49:00,67.5,65.1,29.98,West,270,5.4,7.8,92,0.01,OVC,,0.19,WeatherDisplay:10.37,2013-08-03 16:49:00,
2013-08-03 12:54:00,67.1,64.7,29.99,SW,225,0.0,2.3,92,0.01,OVC,,0.19,WeatherDisplay:10.37,2013-08-03 16:54:00,
2013-08-03 12:59:00,67.1,64.7,29.99,WNW,292,3.3,5.8,92,0.01,OVC,,0.19,WeatherDisplay:10.37,2013-08-03 16:59:00,
2013-08-03 13:04:00,66.9,64.5,29.99,West,270,3.2,9.2,92,0.01,OVC,,0.19,WeatherDisplay:10.37,2013-08-03 17:04:00,
2013-08-03 13:09:00,66.7,64.3,29.99,SSE,158,5.2,8.1,92,0.01,OVC,,0.19,WeatherDisplay:10.37,2013-08-03 17:09:00,
2013-08-03 13:14:00,66.7,64.3,29.99,WNW,292,2.9,5.3,92,0.00,OVC,,0.19,WeatherDisplay:10.37,2013-08-03 17:14:00,
2013-08-03 13:19:00,66.9,64.5,29.99,West,270,5.4,6.9,92,0.00,OVC,,0.19,WeatherDisplay:10.37,2013-08-03 17:19:00,
2013-08-03 13:24:00,67.1,64.7,29.99,West,270,1.0,5.3,92,0.00,OVC,,0.19,WeatherDisplay:10.37,2013-08-03 17:24:00,
2013-08-03 13:29:00,67.1,64.7,29.99,WNW,292,3.2,4.6,92,0.00,OVC,,0.19,WeatherDisplay:10.37,2013-08-03 17:29:00,
2013-08-03 13:34:00,66.9,64.8,29.99,WNW,292,4.2,5.8,93,0.00,OVC,,0.19,WeatherDisplay:10.37,2013-08-03 17:34:00,
2013-08-03 13:39:00,66.9,65.1,29.99,SW,225,2.1,5.8,94,0.00,OVC,,0.19,WeatherDisplay:10.37,2013-08-03 17:39:00,
2013-08-03 13:44:00,66.9,64.8,29.99,South,180,3.9,5.8,93,0.00,OVC,,0.19,WeatherDisplay:10.37,2013-08-03 17:44:00,
2013-08-03 13:49:00,66.7,64.6,29.99,SW,225,3.0,5.8,93,0.00,OVC,,0.19,WeatherDisplay:10.37,2013-08-03 17:49:00,
2013-08-03 13:54:00,66.2,64.4,30.00,SE,135,4.2,5.8,94,0.00,OVC,,0.19,WeatherDisplay:10.37,2013-08-03 17:54:00,
2013-08-03 13:59:00,66.4,64.6,30.00,WNW,292,3.4,8.1,94,0.00,OVC,,0.19,WeatherDisplay:10.37,2013-08-03 17:59:00,
2013-08-03 14:04:00,66.2,64.7,29.99,West,270,3.9,4.6,95,0.00,BKN,,0.19,WeatherDisplay:10.37,2013-08-03 18:04:00,
2013-08-03 14:09:00,66.6,65.1,29.99,SSE,158,2.6,5.3,95,0.00,BKN,,0.19,WeatherDisplay:10.37,2013-08-03 18:09:00,
2013-08-03 14:14:00,66.6,65.1,29.99,SSE,158,3.0,4.6,95,0.00,BKN,,0.19,WeatherDisplay:10.37,2013-08-03 18:14:00,
2013-08-03 14:19:00,66.9,65.4,29.99,SSE,158,4.1,5.8,95,0.00,BKN,,0.19,WeatherDisplay:10.37,2013-08-03 18:19:00,
2013-08-03 14:24:00,66.9,65.1,29.99,SSE,158,4.4,6.1,94,0.00,BKN,,0.19,WeatherDisplay:10.37,2013-08-03 18:24:00,
2013-08-03 14:29:00,67.3,65.5,29.99,SSE,158,2.8,4.6,94,0.00,BKN,,0.19,WeatherDisplay:10.37,2013-08-03 18:29:00,
2013-08-03 14:34:00,67.6,65.8,29.99,SSE,158,2.9,4.4,94,0.00,BKN,,0.19,WeatherDisplay:10.37,2013-08-03 18:34:00,
2013-08-03 14:39:00,68.2,66.1,29.98,WSW,248,4.8,7.0,93,0.00,BKN,,0.19,WeatherDisplay:10.37,2013-08-03 18:39:00,
2013-08-03 14:44:00,68.0,65.9,29.98,SSW,202,3.5,6.1,93,0.00,BKN,,0.19,WeatherDisplay:10.37,2013-08-03 18:44:00,
2013-08-03 14:49:00,67.8,65.7,29.98,SSE,158,1.4,3.5,93,0.00,BKN,,0.19,WeatherDisplay:10.37,2013-08-03 18:49:00,
2013-08-03 14:54:00,68.0,65.9,29.97,South,180,4.0,5.3,93,0.00,BKN,,0.19,WeatherDisplay:10.37,2013-08-03 18:54:00,
2013-08-03 14:59:00,67.8,65.7,29.97,South,180,3.3,5.8,93,0.00,BKN,,0.19,WeatherDisplay:10.37,2013-08-03 18:59:00,
2013-08-03 15:04:00,67.6,65.5,29.98,WSW,248,3.3,3.6,93,0.00,BKN,,0.19,WeatherDisplay:10.37,2013-08-03 19:04:00,
2013-08-03 15:09:00,67.8,65.7,29.98,SSE,158,4.5,6.1,93,0.00,BKN,,0.19,WeatherDisplay:10.37,2013-08-03 19:09:00,
2013-08-03 15:14:00,67.6,65.2,29.98,WSW,248,4.7,6.1,92,0.00,BKN,,0.19,WeatherDisplay:10.37,2013-08-03 19:14:00,
2013-08-03 15:19:00,67.8,65.7,29.97,West,270,3.9,5.8,93,0.00,BKN,,0.19,WeatherDisplay:10.37,2013-08-03 19:19:00,
2013-08-03 15:24:00,67.8,65.7,29.97,South,180,4.6,5.8,93,0.00,BKN,,0.19,WeatherDisplay:10.37,2013-08-03 19:24:00,
2013-08-03 15:29:00,67.8,65.7,29.97,South,180,4.4,4.6,93,0.00,BKN,,0.19,WeatherDisplay:10.37,2013-08-03 19:29:00,
2013-08-03 15:34:00,67.8,65.7,29.97,South,180,4.6,6.1,93,0.00,BKN,,0.19,WeatherDisplay:10.37,2013-08-03 19:34:00,
2013-08-03 15:40:00,68.2,65.8,29.97,SSW,195,3.0,6.0,92,0.00,BKN,BKN,0.19,WeatherDisplay:10.37,2013-08-03 19:40:00,
2013-08-03 15:45:00,68.4,66.0,29.97,SSE,158,3.1,5.8,92,0.00,BKN,,0.19,WeatherDisplay:10.37,2013-08-03 19:45:00,
2013-08-03 15:50:00,68.7,66.0,29.97,South,180,3.4,5.8,91,0.00,BKN,,0.19,WeatherDisplay:10.37,2013-08-03 19:50:00,
2013-08-03 15:55:00,68.7,66.0,29.96,SSW,202,2.9,4.6,91,0.00,BKN,,0.19,WeatherDisplay:10.37,2013-08-03 19:55:00,
2013-08-03 16:00:00,68.9,66.2,29.96,South,180,3.3,6.9,91,0.00,BKN,,0.19,WeatherDisplay:10.37,2013-08-03 20:00:00,
2013-08-03 16:05:00,70.0,66.6,29.96,South,180,1.8,7.8,89,0.00,BKN,,0.19,WeatherDisplay:10.37,2013-08-03 20:05:00,
2013-08-03 16:10:00,70.9,67.2,29.96,SSW,202,4.0,4.6,88,0.00,BKN,,0.19,WeatherDisplay:10.37,2013-08-03 20:10:00,
2013-08-03 16:12:00,70.9,66.5,29.96,SSE,158,5.1,7.0,86,0.00,BKN,,0.19,WeatherDisplay:10.37,2013-08-03 20:12:00,
2013-08-03 16:17:00,70.0,66.3,29.95,West,270,6.4,8.1,88,0.00,BKN,,0.19,WeatherDisplay:10.37,2013-08-03 20:17:00,
2013-08-03 16:22:00,70.3,66.6,29.95,SSW,202,3.8,6.1,88,0.00,BKN,,0.19,WeatherDisplay:10.37,2013-08-03 20:22:00,
2013-08-03 16:27:00,69.6,66.2,29.95,SW,225,4.5,9.5,89,0.00,BKN,,0.19,WeatherDisplay:10.37,2013-08-03 20:27:00,
2013-08-03 16:32:00,70.5,66.4,29.95,SW,225,4.6,5.8,87,0.00,BKN,,0.19,WeatherDisplay:10.37,2013-08-03 20:32:00,
2013-08-03 16:38:00,70.5,66.1,29.95,SSW,202,6.2,7.0,86,0.00,BKN,,0.19,WeatherDisplay:10.37,2013-08-03 20:38:00,
2013-08-03 16:43:00,71.2,66.1,29.95,South,180,4.6,5.8,84,0.00,BKN,,0.19,WeatherDisplay:10.37,2013-08-03 20:43:00,
2013-08-03 16:48:00,71.4,66.3,29.95,SSW,202,5.4,13.8,84,0.00,BKN,,0.19,WeatherDisplay:10.37,2013-08-03 20:48:00,
2013-08-03 16:53:00,70.9,65.8,29.95,WNW,292,4.4,6.9,84,0.00,BKN,,0.19,WeatherDisplay:10.37,2013-08-03 20:53:00,
2013-08-03 16:58:00,71.4,66.7,29.95,WSW,248,4.7,9.2,85,0.00,BKN,,0.19,WeatherDisplay:10.37,2013-08-03 20:58:00,
2013-08-03 17:03:00,71.8,66.0,29.95,WSW,248,5.5,8.1,82,0.00,BKN,,0.19,WeatherDisplay:10.37,2013-08-03 21:03:00,
2013-08-03 17:08:00,72.1,66.3,29.95,South,180,5.1,11.5,82,0.00,BKN,,0.19,WeatherDisplay:10.37,2013-08-03 21:08:00,
2013-08-03 17:13:00,72.3,66.5,29.95,SW,225,5.6,8.1,82,0.00,BKN,,0.19,WeatherDisplay:10.37,2013-08-03 21:13:00,
2013-08-03 17:18:00,72.0,65.5,29.94,SSW,202,4.4,8.1,80,0.00,BKN,,0.19,WeatherDisplay:10.37,2013-08-03 21:18:00,
2013-08-03 17:23:00,72.5,66.0,29.94,North,360,4.0,11.5,80,0.00,BKN,,0.19,WeatherDisplay:10.37,2013-08-03 21:23:00,
2013-08-03 17:28:00,73.8,66.9,29.94,WSW,248,3.3,6.9,79,0.00,BKN,,0.19,WeatherDisplay:10.37,2013-08-03 21:28:00,
2013-08-03 17:33:00,72.7,66.5,29.94,NNW,338,4.2,5.8,81,0.00,BKN,,0.19,WeatherDisplay:10.37,2013-08-03 21:33:00,
2013-08-03 17:38:00,73.0,66.8,29.94,SSW,202,3.1,3.6,81,0.00,BKN,,0.19,WeatherDisplay:10.37,2013-08-03 21:38:00,
2013-08-03 17:43:00,73.8,66.9,29.95,WNW,292,2.4,3.6,79,0.00,BKN,,0.19,WeatherDisplay:10.37,2013-08-03 21:43:00,
2013-08-03 17:48:00,74.8,67.1,29.95,SSE,158,4.8,6.1,77,0.00,BKN,,0.19,WeatherDisplay:10.37,2013-08-03 21:48:00,
2013-08-03 17:53:00,73.2,66.3,29.95,South,180,4.0,5.8,79,0.00,BKN,,0.19,WeatherDisplay:10.37,2013-08-03 21:53:00,
2013-08-03 17:58:00,72.0,66.2,29.95,SSW,202,4.2,6.9,82,0.00,BKN,,0.19,WeatherDisplay:10.37,2013-08-03 21:58:00,
2013-08-03 18:03:00,72.1,66.3,29.95,SE,135,3.4,5.8,82,0.00,-RA,,0.19,WeatherDisplay:10.37,2013-08-03 22:03:00,
2013-08-03 18:08:00,72.3,66.5,29.95,South,180,4.0,5.8,82,0.00,-RA,,0.19,WeatherDisplay:10.37,2013-08-03 22:08:00,
2013-08-03 18:13:00,72.5,66.7,29.95,SSE,158,4.9,6.1,82,0.00,-RA,,0.19,WeatherDisplay:10.37,2013-08-03 22:13:00,
2013-08-03 18:18:00,73.0,66.8,29.95,West,270,0.8,2.3,81,0.00,-RA,,0.19,WeatherDisplay:10.37,2013-08-03 22:18:00,
2013-08-03 18:23:00,72.5,66.3,29.95,West,270,3.4,6.9,81,0.00,-RA,,0.19,WeatherDisplay:10.37,2013-08-03 22:23:00,
2013-08-03 18:28:00,71.6,66.2,29.95,SSE,158,2.6,3.5,83,0.00,-RA,,0.19,WeatherDisplay:10.37,2013-08-03 22:28:00,
2013-08-03 18:33:00,72.3,66.1,29.95,West,270,4.1,4.6,81,0.00,-RA,,0.19,WeatherDisplay:10.37,2013-08-03 22:33:00,
2013-08-03 18:38:00,71.4,66.0,29.95,South,180,3.3,4.6,83,0.00,-RA,,0.19,WeatherDisplay:10.37,2013-08-03 22:38:00,
2013-08-03 18:44:00,71.6,65.8,29.95,South,180,2.7,3.6,82,0.00,-RA,,0.19,WeatherDisplay:10.37,2013-08-03 22:44:00,
2013-08-03 18:49:00,71.2,65.8,29.95,South,180,2.0,4.6,83,0.00,-RA,,0.19,WeatherDisplay:10.37,2013-08-03 22:49:00,
2013-08-03 18:54:00,71.4,66.0,29.96,SSW,202,0.4,3.6,83,0.00,-RA,,0.19,WeatherDisplay:10.37,2013-08-03 22:54:00,
2013-08-03 18:59:00,71.1,65.7,29.96,NW,315,2.9,3.6,83,0.00,-RA,,0.19,WeatherDisplay:10.37,2013-08-03 22:59:00,
2013-08-03 19:04:00,70.5,66.1,29.96,NW,315,2.4,4.4,86,0.00,BKN,,0.19,WeatherDisplay:10.37,2013-08-03 23:04:00,
2013-08-03 19:09:00,70.3,65.6,29.96,SSE,158,2.8,5.8,85,0.00,BKN,,0.19,WeatherDisplay:10.37,2013-08-03 23:09:00,
2013-08-03 19:14:00,70.2,65.5,29.96,SSE,158,2.9,3.6,85,0.00,BKN,,0.19,WeatherDisplay:10.37,2013-08-03 23:14:00,
2013-08-03 19:19:00,70.3,65.6,29.95,SSE,158,1.5,4.4,85,0.00,BKN,,0.19,WeatherDisplay:10.37,2013-08-03 23:19:00,
2013-08-03 19:24:00,70.2,65.5,29.95,SSE,158,2.4,4.6,85,0.00,BKN,,0.19,WeatherDisplay:10.37,2013-08-03 23:24:00,
2013-08-03 19:29:00,70.2,65.5,29.96,SSE,158,3.3,5.8,85,0.00,BKN,,0.19,WeatherDisplay:10.37,2013-08-03 23:29:00,
2013-08-03 19:34:00,70.0,65.3,29.96,South,180,2.1,2.7,85,0.00,BKN,,0.19,WeatherDisplay:10.37,2013-08-03 23:34:00,
2013-08-03 19:39:00,69.8,65.8,29.96,South,180,2.5,2.7,87,0.00,BKN,,0.19,WeatherDisplay:10.37,2013-08-03 23:39:00,
2013-08-03 19:44:00,69.6,65.6,29.95,South,180,3.0,4.6,87,0.00,BKN,,0.19,WeatherDisplay:10.37,2013-08-03 23:44:00,
2013-08-03 19:49:00,69.4,65.7,29.95,South,180,1.2,2.7,88,0.00,BKN,,0.19,WeatherDisplay:10.37,2013-08-03 23:49:00,
2013-08-03 19:54:00,69.3,65.9,29.96,South,180,0.0,2.3,89,0.00,BKN,,0.19,WeatherDisplay:10.37,2013-08-03 23:54:00,
2013-08-03 19:59:00,68.9,66.2,29.96,South,180,0.9,2.7,91,0.00,BKN,,0.19,WeatherDisplay:10.37,2013-08-03 23:59:00,
2013-08-03 20:04:00,68.5,65.8,29.97,West,270,1.7,2.7,91,0.00,SCT,,0.19,WeatherDisplay:10.37,2013-08-04 00:04:00,
2013-08-03 20:09:00,68.5,65.8,29.97,SSE,158,2.8,3.6,91,0.00,SCT,,0.19,WeatherDisplay:10.37,2013-08-04 00:09:00,
2013-08-03 20:14:00,68.2,65.5,29.97,WNW,292,1.0,4.6,91,0.00,SCT,,0.19,WeatherDisplay:10.37,2013-08-04 00:14:00,
2013-08-03 20:19:00,68.2,65.5,29.97,South,180,2.7,3.5,91,0.00,SCT,,0.19,WeatherDisplay:10.37,2013-08-04 00:19:00,
2013-08-03 20:24:00,67.8,65.4,29.97,South,180,2.2,2.7,92,0.00,SCT,,0.19,WeatherDisplay:10.37,2013-08-04 00:24:00,
2013-08-03 20:29:00,67.6,65.2,29.97,South,180,0.6,2.3,92,0.00,SCT,,0.19,WeatherDisplay:10.37,2013-08-04 00:29:00,
2013-08-03 20:34:00,67.3,65.2,29.97,South,180,3.0,3.6,93,0.00,SCT,,0.19,WeatherDisplay:10.37,2013-08-04 00:34:00,
2013-08-03 20:39:00,67.3,65.2,29.97,South,180,0.0,3.5,93,0.00,SCT,,0.19,WeatherDisplay:10.37,2013-08-04 00:39:00,
2013-08-03 20:44:00,67.3,65.2,29.97,South,180,0.0,0.0,93,0.00,SCT,,0.19,WeatherDisplay:10.37,2013-08-04 00:44:00,
2013-08-03 20:49:00,67.1,65.3,29.97,South,180,0.0,0.0,94,0.00,SCT,,0.19,WeatherDisplay:10.37,2013-08-04 00:49:00,
2013-08-03 20:54:00,66.7,65.2,29.97,South,180,0.0,0.0,95,0.00,SCT,,0.19,WeatherDisplay:10.37,2013-08-04 00:54:00,
2013-08-03 20:59:00,66.6,65.1,29.97,South,180,0.6,2.7,95,0.00,SCT,,0.19,WeatherDisplay:10.37,2013-08-04 00:59:00,
2013-08-03 21:04:00,66.2,64.7,29.98,WNW,292,0.0,0.0,95,0.00,SCT,,0.19,WeatherDisplay:10.37,2013-08-04 01:04:00,
2013-08-03 21:09:00,66.0,64.5,29.98,WNW,292,1.5,3.6,95,0.00,SCT,,0.19,WeatherDisplay:10.37,2013-08-04 01:09:00,
2013-08-03 21:14:00,65.8,64.6,29.98,WNW,292,0.0,2.3,96,0.00,SCT,,0.19,WeatherDisplay:10.37,2013-08-04 01:14:00,
2013-08-03 21:19:00,65.7,64.5,29.98,WNW,292,2.5,2.7,96,0.00,SCT,,0.19,WeatherDisplay:10.37,2013-08-04 01:19:00,
2013-08-03 21:24:00,65.1,64.2,29.98,WNW,292,1.4,3.5,97,0.00,SCT,,0.19,WeatherDisplay:10.37,2013-08-04 01:24:00,
2013-08-03 21:29:00,64.9,64.3,29.98,WNW,292,0.0,0.0,98,0.00,SCT,,0.19,WeatherDisplay:10.37,2013-08-04 01:29:00,
2013-08-03 21:34:00,64.6,64.0,29.98,WNW,292,0.0,0.0,98,0.00,SCT,,0.19,WeatherDisplay:10.37,2013-08-04 01:34:00,
2013-08-03 21:39:00,64.6,64.0,29.98,WNW,292,0.0,0.0,98,0.00,SCT,,0.19,WeatherDisplay:10.37,2013-08-04 01:39:00,
2013-08-03 21:44:00,64.2,63.6,29.98,WNW,292,0.0,0.0,98,0.00,SCT,,0.19,WeatherDisplay:10.37,2013-08-04 01:44:00,
2013-08-03 21:49:00,64.2,63.6,29.98,WNW,292,0.0,0.0,98,0.00,SCT,,0.19,WeatherDisplay:10.37,2013-08-04 01:49:00,
2013-08-03 21:54:00,64.2,63.9,29.99,WNW,292,0.0,0.0,99,0.00,SCT,,0.19,WeatherDisplay:10.37,2013-08-04 01:54:00,
2013-08-03 21:59:00,64.0,63.7,29.99,WNW,292,0.0,0.0,99,0.00,SCT,,0.19,WeatherDisplay:10.37,2013-08-04 01:59:00,
2013-08-03 22:04:00,64.0,63.7,29.99,WNW,292,0.0,0.0,99,0.00,FEW,,0.19,WeatherDisplay:10.37,2013-08-04 02:04:00,
2013-08-03 22:09:00,63.9,63.6,29.99,WNW,292,0.0,0.0,99,0.00,FEW,,0.19,WeatherDisplay:10.37,2013-08-04 02:09:00,
2013-08-03 22:14:00,63.7,63.4,29.99,WNW,292,0.0,0.0,99,0.00,FEW,,0.19,WeatherDisplay:10.37,2013-08-04 02:14:00,
2013-08-03 22:19:00,63.5,63.2,29.99,WNW,292,0.0,0.0,99,0.00,FEW,,0.19,WeatherDisplay:10.37,2013-08-04 02:19:00,
2013-08-03 22:24:00,63.3,63.0,29.99,WNW,292,0.0,0.0,99,0.00,FEW,,0.19,WeatherDisplay:10.37,2013-08-04 02:24:00,
2013-08-03 22:29:00,63.3,63.0,29.99,WNW,292,0.0,0.0,99,0.00,FEW,,0.19,WeatherDisplay:10.37,2013-08-04 02:29:00,
2013-08-03 22:34:00,63.3,63.0,29.99,WNW,292,0.0,0.0,99,0.00,FEW,,0.19,WeatherDisplay:10.37,2013-08-04 02:34:00,
2013-08-03 22:39:00,63.0,62.7,29.99,WNW,292,0.0,0.0,99,0.00,FEW,,0.19,WeatherDisplay:10.37,2013-08-04 02:39:00,
2013-08-03 22:44:00,62.8,62.8,29.99,WNW,292,0.0,0.0,100,0.00,FEW,,0.19,WeatherDisplay:10.37,2013-08-04 02:44:00,
2013-08-03 22:49:00,62.8,62.8,29.99,WNW,292,0.0,0.0,100,0.00,FEW,,0.19,WeatherDisplay:10.37,2013-08-04 02:49:00,
2013-08-03 22:54:00,62.4,62.4,29.99,WNW,292,0.0,0.0,100,0.00,FEW,,0.19,WeatherDisplay:10.37,2013-08-04 02:54:00,
2013-08-03 22:59:00,62.4,62.4,29.99,WNW,292,0.0,0.0,100,0.00,FEW,,0.19,WeatherDisplay:10.37,2013-08-04 02:59:00,
2013-08-03 23:04:00,62.2,62.2,29.99,WNW,292,0.0,0.0,100,0.00,FEW,,0.19,WeatherDisplay:10.37,2013-08-04 03:04:00,
2013-08-03 23:09:00,62.1,62.1,29.99,WNW,292,0.0,0.0,100,0.00,FEW,,0.19,WeatherDisplay:10.37,2013-08-04 03:09:00,
2013-08-03 23:14:00,62.1,62.1,29.99,WNW,292,0.0,0.0,100,0.00,FEW,,0.19,WeatherDisplay:10.37,2013-08-04 03:14:00,
2013-08-03 23:19:00,61.9,61.9,29.99,WNW,292,0.0,0.0,100,0.00,FEW,,0.19,WeatherDisplay:10.37,2013-08-04 03:19:00,
2013-08-03 23:24:00,61.9,61.9,29.99,WNW,292,0.0,0.0,100,0.00,FEW,,0.19,WeatherDisplay:10.37,2013-08-04 03:24:00,
2013-08-03 23:29:00,61.7,61.7,30.00,WNW,292,0.0,0.0,100,0.00,FEW,,0.19,WeatherDisplay:10.37,2013-08-04 03:29:00,
2013-08-03 23:34:00,61.9,61.9,30.00,WNW,292,0.0,0.0,100,0.00,FEW,,0.19,WeatherDisplay:10.37,2013-08-04 03:34:00,
2013-08-03 23:39:00,61.7,61.7,30.00,WNW,292,0.0,0.0,100,0.00,FEW,,0.19,WeatherDisplay:10.37,2013-08-04 03:39:00,
2013-08-03 23:44:00,61.5,61.5,29.99,WNW,292,0.0,0.0,100,0.00,FEW,,0.19,WeatherDisplay:10.37,2013-08-04 03:44:00,
2013-08-03 23:49:00,61.3,61.3,29.99,WNW,292,0.0,0.0,100,0.00,FEW,,0.19,WeatherDisplay:10.37,2013-08-04 03:49:00,
2013-08-03 23:54:00,61.2,61.2,29.99,WNW,292,0.0,0.0,100,0.00,FEW,,0.19,WeatherDisplay:10.37,2013-08-04 03:54:00,
2013-08-03 23:59:00,61.0,61.0,29.99,WNW,292,0.0,0.0,100,0.00,FEW,,0.19,WeatherDisplay:10.37,2013-08-04 03:59:00,